x

St. Augustine, Fl (sauf1) Weather Station

3:00am - Thu 18th Jan 2018 All times are EST. -5 hours from GMT.

  • Wind
    21mph, 24mph gusts
  • Sea Temp 48°f
  • Air Temp 29°f
  • Sea Pressure 1027.8mb
  • St. Augustine, Fl
  • St. Augustine, Fl

More Historic Weather Station data

Upgrade to MSW Pro to gain access to the past 30 days of data for over 8000 Wavebouys and Weather Stations around the globe.

Join

Comparision Forecast

View Surf forecast
   
Thu 01/18 3:00am 21 24 mph 1027.8mb 48f 29f
2:00am 13 16 mph 1028.6mb 49f 29f
1:00am 13 17 mph 1028.2mb 49f 30f
12:00am 14 22 mph 1027.9mb 49f 33f
Wed 01/17 11:00pm 16 20 mph 1027.9mb 50f 35f
10:00pm 18 23 mph 1027.4mb 50f 37f
9:00pm 11 15 mph 1026.9mb 50f 40f
8:00pm 16 21 mph 1026.1mb 51f 42f
7:00pm 11 16 mph 1025.3mb 51f 45f
6:00pm 14 18 mph 1024.3mb 51f 47f
5:00pm 13 17 mph 1023.9mb 51f 49f
4:00pm 13 17 mph 1023.6mb 51f 50f
3:00pm 15 18 mph 1023.1mb 51f 52f
2:00pm 11 16 mph 1022.5mb 51f 57f
12:00pm 9 13 mph 1024.1mb 51f 61f
11:00am 6 8 mph 1025.2mb 51f 56f
10:00am 7 8 mph 1025.1mb 51f 53f
9:00am 3 3 mph 1024.6mb 50f 54f
8:00am 5 5 mph 1024.4mb 51f 48f
7:00am 6 7 mph 1024.2mb 51f 48f
6:00am 6 6 mph 1024mb 50f 51f
5:00am 3 5 mph 1023.9mb 50f 50f
4:00am 3 3 mph 1024mb 50f 51f
3:00am 6 6 mph 1024.5mb 50f 50f
2:00am 7 7 mph 1025mb 51f 49f
1:00am 6 7 mph 1025.5mb 51f 49f
12:00am 7 8 mph 1026.2mb 51f 50f
Tue 01/16 11:00pm 11 13 mph 1026.7mb 51f 49f
10:00pm 11 13 mph 1026.9mb 51f 50f
9:00pm 10 11 mph 1027mb 51f 49f
8:00pm 10 11 mph 1026.7mb 51f 49f
7:00pm 9 10 mph 1026.7mb 51f 49f
6:00pm 9 10 mph 1027.1mb 51f 49f
5:00pm 11 13 mph 1027.4mb 51f 50f
4:00pm 15 16 mph 1027.4mb 52f 49f
3:00pm 18 20 mph 1027.7mb 51f 48f
2:00pm 24 25 mph 1028.4mb 51f 48f
1:00pm 24 25 mph 1029.1mb 51f 48f
12:00pm 23 25 mph 1029.8mb 51f 48f
11:00am 22 24 mph 1030.5mb 50f 49f
10:00am 21 22 mph 1030.5mb 50f 49f
9:00am 20 22 mph 1029.9mb 50f 49f
8:00am 11 13 mph 1029.5mb 50f 48f
7:00am 13 14 mph 1029.1mb 50f 48f
6:00am 13 14 mph 1028.9mb 50f 48f
5:00am 9 11 mph 1028.7mb 50f 48f
4:00am 10 11 mph 1028.3mb 50f 49f
3:00am 10 11 mph 1028.3mb 50f 51f
2:00am 10 11 mph 1028.4mb 50f 51f
1:00am 13 14 mph 1029mb 50f 51f
12:00am 18 20 mph 1029.5mb 50f 50f
Mon 01/15 10:00pm 23 25 mph 1030mb 50f 49f
6:00pm 22 23 mph 1029.5mb 52f 47f
5:00pm 21 22 mph 1029.5mb 52f 47f
4:00pm 21 23 mph 1029.1mb 52f 47f
3:00pm 22 24 mph 1029.1mb 52f 46f
2:00pm 22 25 mph 1029.3mb 52f 47f
1:00pm 25 26 mph 1029.8mb 51f 47f
12:00pm 25 28 mph 1030.6mb 51f 48f
11:00am 25 29 mph 1031.1mb 52f 49f
10:00am 25 28 mph 1030.9mb 51f 49f
9:00am 26 28 mph 1030.2mb 51f 49f
8:00am 28 30 mph 1029.3mb 52f 49f
7:00am 25 28 mph 1028.5mb 52f 49f
6:00am 22 24 mph 1027.8mb 51f 49f
5:00am 23 25 mph 1027.7mb 52f 47f
4:00am 23 25 mph 1028.5mb 52f 45f
3:00am 25 29 mph 1028.7mb 52f 49f
2:00am 29 32 mph 1028.8mb 52f 49f
1:00am 28 30 mph 1028.5mb 52f 49f
12:00am 26 30 mph 1028.4mb 52f 49f
Sun 01/14 11:00pm 28 31 mph 1029mb 52f 49f
10:00pm 26 31 mph 1029.1mb 53f 49f
9:00pm 28 31 mph 1029.1mb 53f 49f
8:00pm 28 31 mph 1029mb 53f 49f
7:00pm 25 28 mph 1028.9mb 53f 48f
6:00pm 23 28 mph 1028.6mb 52f 47f
5:00pm 28 30 mph 1028.8mb 53f 46f
4:00pm 29 31 mph 1028.8mb 53f 45f
3:00pm 29 31 mph 1028.7mb 53f 45f
2:00pm 29 31 mph 1028.8mb 53f 46f
1:00pm 31 34 mph 1029.2mb 53f 47f
12:00pm 30 32 mph 1029.9mb 53f 47f
11:00am 30 32 mph 1030.1mb 52f 47f